RUT weather

Rutland - Southern Vermont Regional Airport
Rutland, Vermont, United States

Public forecast

Using degrees Fahrenheit for public forecast. Weather courtesy of forecast.io.

Current aviation weather report (METAR) for Rutland - Southern Vermont Regional Airport

Retrieved 2019/10/16 20:56 UTC (6 minutes ago):

KRUT 162056Z AUTO 12019G25KT 10SM FEW040 BKN060 BKN110 13/06 A2972 RMK AO2 PK WND 10027/2010 SLP059 T01330061 58036

Aviation forecast (TAF) for Rutland - Southern Vermont Regional Airport

Retrieved 2019/10/16 18:30 UTC (3 hours ago):

TAF KRUT 161726Z 1618/1718 14014G22KT P6SM OVC150 FM162100 13014G22KT P6SM VCSH OVC060 FM170300 10017G26KT 5SM +RA BR OVC025 FM170600 09022G33KT 3SM +RA BR OVC015 FM171000 35012G20KT 4SM +RA BR OVC007